Time;durP1;ratioP1;P1;durP2;ratioP2;P2;SDS_P1;SDS_P2;PMS_P1;PMS_P2;Temp;Humidity;BMP_temperature;BMP_pressure;BME280_temperature;BME280_humidity;BME280_pressure;Samples;Min_cycle;Max_cycle;Signal;HPM_P1;HPM_P2
2024/01/25 00:01:47;;;;;;;12.98;8.35;;;24.00;99.90;;;;;;4974776;28;20046;-54
2024/01/25 00:04:13;;;;;;;14.60;8.77;;;24.00;99.90;;;;;;4977321;28;20030;-53
2024/01/25 00:06:39;;;;;;;14.55;9.20;;;24.00;99.90;;;;;;4977222;28;20031;-53
2024/01/25 00:09:05;;;;;;;13.93;8.75;;;23.90;99.90;;;;;;4975964;28;20030;-53
2024/01/25 00:11:31;;;;;;;15.20;8.98;;;24.00;99.90;;;;;;4977273;28;20491;-53
2024/01/25 00:13:58;;;;;;;13.70;8.55;;;23.90;99.90;;;;;;4977251;28;20050;-53
2024/01/25 00:16:24;;;;;;;13.93;8.73;;;23.90;99.90;;;;;;4977142;28;20023;-53
2024/01/25 00:18:50;;;;;;;14.90;8.85;;;23.90;99.90;;;;;;4977052;28;20030;-53
2024/01/25 00:21:16;;;;;;;12.25;7.97;;;23.90;99.90;;;;;;4976970;28;20027;-54
2024/01/25 00:23:43;;;;;;;10.60;7.93;;;23.80;99.90;;;;;;4977003;28;20431;-54
2024/01/25 00:26:09;;;;;;;12.23;8.23;;;23.80;99.90;;;;;;4959401;28;20034;-53
2024/01/25 00:28:34;;;;;;;9.88;7.80;;;23.80;99.90;;;;;;4976762;28;20432;-53
2024/01/25 00:31:00;;;;;;;11.40;7.43;;;23.80;99.90;;;;;;4959751;28;20108;-53
2024/01/25 00:33:26;;;;;;;13.02;8.00;;;23.80;99.90;;;;;;4976909;28;20030;-53
2024/01/25 00:35:52;;;;;;;12.38;7.88;;;23.80;99.90;;;;;;4976770;28;20030;-53
2024/01/25 00:38:18;;;;;;;12.38;8.55;;;23.80;99.90;;;;;;4976507;28;20483;-54
2024/01/25 00:40:45;;;;;;;12.70;8.77;;;23.80;99.90;;;;;;4976698;28;20078;-53
2024/01/25 00:43:11;;;;;;;10.23;7.47;;;23.80;99.90;;;;;;4976425;28;20491;-53
2024/01/25 00:45:37;;;;;;;13.55;8.43;;;23.80;99.90;;;;;;4976671;28;20029;-53
2024/01/25 00:48:03;;;;;;;12.68;7.85;;;23.70;99.90;;;;;;4959262;28;20106;-53
2024/01/25 00:50:29;;;;;;;10.13;7.05;;;23.80;99.90;;;;;;4976550;28;20038;-53
2024/01/25 00:52:55;;;;;;;10.50;7.63;;;23.70;99.90;;;;;;4976513;28;20054;-53
2024/01/25 00:55:21;;;;;;;10.25;7.75;;;23.70;99.90;;;;;;4976434;28;20058;-53
2024/01/25 00:57:48;;;;;;;12.55;8.10;;;23.70;99.90;;;;;;4976292;28;20022;-53
2024/01/25 01:00:14;;;;;;;12.52;7.68;;;23.70;99.90;;;;;;4976321;28;20019;-53
2024/01/25 01:02:43;;;;;;;11.13;7.10;;;23.70;99.90;;;;;;4976094;28;20055;-53
2024/01/25 01:05:10;;;;;;;10.35;7.50;;;23.70;99.90;;;;;;4976202;28;20027;-53
2024/01/25 01:07:36;;;;;;;10.98;7.15;;;23.60;99.90;;;;;;4976065;28;20030;-53
2024/01/25 01:10:03;;;;;;;10.68;7.43;;;23.70;99.90;;;;;;4976276;28;20443;-53
2024/01/25 01:12:30;;;;;;;11.90;7.83;;;23.60;99.90;;;;;;4975773;28;20034;-53
2024/01/25 01:14:55;;;;;;;10.67;7.23;;;23.60;99.90;;;;;;4976245;28;20356;-53
2024/01/25 01:17:21;;;;;;;10.30;7.13;;;23.60;99.90;;;;;;4975995;28;20105;-53
2024/01/25 01:19:47;;;;;;;10.07;6.70;;;23.60;99.90;;;;;;4976008;28;20023;-54
2024/01/25 01:22:13;;;;;;;9.45;6.55;;;23.60;99.90;;;;;;4975965;28;20054;-53
2024/01/25 01:24:39;;;;;;;9.13;7.00;;;23.60;99.90;;;;;;4975730;28;20476;-54
2024/01/25 01:27:05;;;;;;;11.13;6.95;;;23.60;99.90;;;;;;4975921;28;20035;-54
2024/01/25 01:29:30;;;;;;;10.15;6.90;;;23.50;99.90;;;;;;4975853;28;20416;-55
2024/01/25 01:31:56;;;;;;;10.93;7.43;;;23.60;99.90;;;;;;4975793;28;20027;-54
2024/01/25 01:34:22;;;;;;;8.45;5.95;;;23.50;99.90;;;;;;4975757;28;20027;-54
2024/01/25 01:36:48;;;;;;;10.77;6.72;;;23.50;99.90;;;;;;4975626;28;20088;-54
2024/01/25 01:39:13;;;;;;;9.00;6.65;;;23.50;99.90;;;;;;4975771;28;20113;-54
2024/01/25 01:41:39;;;;;;;10.13;7.03;;;23.50;99.90;;;;;;4975557;28;20019;-54
2024/01/25 01:44:05;;;;;;;10.65;6.45;;;23.50;99.90;;;;;;4974461;28;20031;-54
2024/01/25 01:46:31;;;;;;;10.77;7.80;;;23.50;99.90;;;;;;4974265;28;20082;-54
2024/01/25 01:48:57;;;;;;;9.63;7.40;;;23.50;99.90;;;;;;4974917;28;20027;-54
2024/01/25 01:51:23;;;;;;;9.30;6.80;;;23.50;99.90;;;;;;4974965;28;20093;-54
2024/01/25 01:53:49;;;;;;;10.52;6.85;;;23.40;99.90;;;;;;4975164;28;20038;-54
2024/01/25 01:56:15;;;;;;;8.00;6.47;;;23.40;99.90;;;;;;4975322;28;20472;-54
2024/01/25 01:58:42;;;;;;;9.75;6.80;;;23.40;99.90;;;;;;4974827;28;20031;-54
2024/01/25 02:01:08;;;;;;;8.13;6.25;;;23.40;99.90;;;;;;4974276;28;20043;-54
2024/01/25 02:03:34;;;;;;;8.20;6.18;;;23.40;99.90;;;;;;4974892;28;20035;-54
2024/01/25 02:06:02;;;;;;;9.00;6.78;;;23.40;99.90;;;;;;4975072;28;20094;-54
2024/01/25 02:08:29;;;;;;;8.88;6.30;;;23.40;99.90;;;;;;4975083;28;20015;-54
2024/01/25 02:10:55;;;;;;;9.37;6.67;;;23.30;99.90;;;;;;4974872;28;20555;-54
2024/01/25 02:13:21;;;;;;;8.75;6.07;;;23.30;99.90;;;;;;4974807;28;20094;-54
2024/01/25 02:15:47;;;;;;;8.77;6.15;;;23.30;99.90;;;;;;4974944;28;20479;-54
2024/01/25 02:18:13;;;;;;;9.00;6.80;;;23.40;99.90;;;;;;4974936;28;20022;-54
2024/01/25 02:20:39;;;;;;;8.55;6.22;;;23.30;99.90;;;;;;4975030;28;20069;-54
2024/01/25 02:23:04;;;;;;;9.40;6.72;;;23.30;99.90;;;;;;4974778;28;20030;-54
2024/01/25 02:25:30;;;;;;;9.70;6.40;;;23.30;99.90;;;;;;4956646;28;20055;-54
2024/01/25 02:27:56;;;;;;;9.57;6.95;;;23.30;99.90;;;;;;4974747;28;20480;-53
2024/01/25 02:30:22;;;;;;;8.30;6.75;;;23.30;99.90;;;;;;4974557;28;20037;-54
2024/01/25 02:32:48;;;;;;;11.23;7.03;;;23.20;99.90;;;;;;4974537;28;20030;-54
2024/01/25 02:35:13;;;;;;;10.73;6.60;;;23.20;99.90;;;;;;4974678;28;20077;-54
2024/01/25 02:37:39;;;;;;;8.00;5.95;;;23.20;99.90;;;;;;4974664;28;20113;-54
2024/01/25 02:40:05;;;;;;;8.63;6.22;;;23.20;99.90;;;;;;4957026;28;20023;-54
2024/01/25 02:42:31;;;;;;;10.82;6.85;;;23.20;99.90;;;;;;4974384;28;20886;-54
2024/01/25 02:44:57;;;;;;;8.10;6.07;;;23.20;99.90;;;;;;4974424;28;20034;-54
2024/01/25 02:47:22;;;;;;;9.90;6.93;;;23.20;99.90;;;;;;4974393;28;20428;-54
2024/01/25 02:49:48;;;;;;;9.70;6.95;;;23.20;99.90;;;;;;4974090;28;20050;-54
2024/01/25 02:52:14;;;;;;;9.30;6.85;;;23.10;99.90;;;;;;4972659;28;20027;-54
2024/01/25 02:54:40;;;;;;;8.65;6.28;;;23.10;99.90;;;;;;4968138;28;20077;-55
2024/01/25 02:57:06;;;;;;;9.50;6.55;;;23.10;99.90;;;;;;4973214;28;20018;-55
2024/01/25 02:59:32;;;;;;;11.15;7.18;;;23.10;99.90;;;;;;4973407;28;20018;-56
2024/01/25 03:01:58;;;;;;;9.68;7.00;;;23.10;99.90;;;;;;4973392;28;20073;-54
2024/01/25 03:04:23;;;;;;;9.57;6.47;;;23.10;99.90;;;;;;4968257;28;20093;-57
2024/01/25 03:06:49;;;;;;;9.77;6.70;;;23.10;99.90;;;;;;4973264;28;20031;-56
2024/01/25 03:09:15;;;;;;;9.20;6.88;;;23.10;99.90;;;;;;4973013;28;20085;-56
2024/01/25 03:11:42;;;;;;;11.27;6.90;;;23.10;99.90;;;;;;4950097;28;20114;-56
2024/01/25 03:14:08;;;;;;;9.30;6.88;;;23.10;99.90;;;;;;4956000;28;20499;-56
2024/01/25 03:16:34;;;;;;;9.70;6.53;;;23.10;99.90;;;;;;4972759;28;20105;-56
2024/01/25 03:18:59;;;;;;;9.57;6.93;;;23.10;99.90;;;;;;4973419;28;20021;-57
2024/01/25 03:21:25;;;;;;;9.23;6.93;;;23.10;99.90;;;;;;4973234;28;20093;-56
2024/01/25 03:23:51;;;;;;;10.23;6.53;;;23.10;99.90;;;;;;4972580;28;20035;-56
2024/01/25 03:26:17;;;;;;;11.38;6.63;;;23.10;99.90;;;;;;4972835;28;20027;-55
2024/01/25 03:28:43;;;;;;;9.82;6.90;;;23.10;99.90;;;;;;4972845;28;20023;-57
2024/01/25 03:31:09;;;;;;;10.13;7.00;;;23.10;99.90;;;;;;4972788;28;20479;-56
2024/01/25 03:33:35;;;;;;;10.80;6.38;;;23.10;99.90;;;;;;4972779;28;20065;-54
2024/01/25 03:36:05;;;;;;;9.90;6.63;;;23.00;99.90;;;;;;4972908;28;20015;-55
2024/01/25 03:38:31;;;;;;;7.97;6.32;;;23.00;99.90;;;;;;4954550;28;20092;-54
2024/01/25 03:40:58;;;;;;;9.75;6.88;;;23.00;99.90;;;;;;4972681;28;20027;-54
2024/01/25 03:43:27;;;;;;;8.75;6.05;;;23.00;99.90;;;;;;4972843;28;20026;-53
2024/01/25 03:45:53;;;;;;;8.68;6.57;;;23.00;99.90;;;;;;4972621;28;20057;-53
2024/01/25 03:48:19;;;;;;;10.35;6.97;;;23.00;99.90;;;;;;4967873;28;20031;-53
2024/01/25 03:50:45;;;;;;;8.13;6.18;;;23.00;99.90;;;;;;4967231;28;20031;-54
2024/01/25 03:53:11;;;;;;;9.73;6.68;;;23.00;99.90;;;;;;4972167;28;20030;-54
2024/01/25 03:55:37;;;;;;;8.02;6.18;;;22.90;99.90;;;;;;4972871;28;20035;-54
2024/01/25 03:58:03;;;;;;;10.43;7.60;;;23.00;99.90;;;;;;4972571;28;20383;-54
2024/01/25 04:00:29;;;;;;;10.95;7.07;;;22.90;99.90;;;;;;4955838;28;20131;-53
2024/01/25 04:02:55;;;;;;;9.68;6.97;;;22.90;99.90;;;;;;4972591;28;20050;-53
2024/01/25 04:05:21;;;;;;;9.10;6.38;;;22.90;99.90;;;;;;4972702;28;20038;-54
2024/01/25 04:07:46;;;;;;;9.77;6.63;;;22.90;99.90;;;;;;4972543;28;20023;-54
2024/01/25 04:10:12;;;;;;;11.27;6.55;;;22.90;99.90;;;;;;4972876;28;20099;-53
2024/01/25 04:12:39;;;;;;;8.73;6.30;;;22.90;99.90;;;;;;4972770;28;20031;-53
2024/01/25 04:15:05;;;;;;;9.98;6.30;;;22.90;99.90;;;;;;4972640;28;20014;-53
2024/01/25 04:17:31;;;;;;;11.75;7.20;;;22.90;99.90;;;;;;4972681;28;20027;-53
2024/01/25 04:19:57;;;;;;;8.75;6.40;;;22.80;99.90;;;;;;4972450;28;20038;-53
2024/01/25 04:22:23;;;;;;;8.80;6.25;;;22.80;99.90;;;;;;4972748;28;20030;-53
2024/01/25 04:24:49;;;;;;;8.80;6.20;;;22.80;99.90;;;;;;4972492;28;20085;-53
2024/01/25 04:27:15;;;;;;;9.60;6.15;;;22.80;99.90;;;;;;4955500;28;20029;-53
2024/01/25 04:29:44;;;;;;;8.43;5.72;;;22.80;99.90;;;;;;4972708;28;20102;-53
2024/01/25 04:32:10;;;;;;;7.95;5.82;;;22.80;99.90;;;;;;4972533;28;20039;-53
2024/01/25 04:34:36;;;;;;;8.63;6.30;;;22.70;99.90;;;;;;4972461;28;20035;-53
2024/01/25 04:37:02;;;;;;;8.15;5.55;;;22.80;99.90;;;;;;4972392;28;20061;-54
2024/01/25 04:39:28;;;;;;;10.18;6.43;;;22.70;99.90;;;;;;4972599;28;20102;-53
2024/01/25 04:41:53;;;;;;;10.75;6.22;;;22.70;99.90;;;;;;4972382;28;20031;-55
2024/01/25 04:44:19;;;;;;;9.27;6.32;;;22.70;99.90;;;;;;4955111;28;20526;-53
2024/01/25 04:46:45;;;;;;;7.97;6.03;;;22.70;99.90;;;;;;4972375;28;20033;-54
2024/01/25 04:49:11;;;;;;;8.90;6.55;;;22.70;99.90;;;;;;4976041;28;20128;-54
2024/01/25 04:51:37;;;;;;;8.15;5.40;;;22.70;99.90;;;;;;4975952;28;20035;-54
2024/01/25 04:54:03;;;;;;;6.72;5.15;;;22.70;99.90;;;;;;4975869;28;20162;-54
2024/01/25 04:56:29;;;;;;;7.88;5.35;;;22.70;99.90;;;;;;4976024;28;20533;-55
2024/01/25 04:58:54;;;;;;;8.45;5.20;;;22.60;99.90;;;;;;4975849;28;20118;-54
2024/01/25 05:01:20;;;;;;;9.63;6.30;;;22.60;99.90;;;;;;4958105;28;20499;-53
2024/01/25 05:03:46;;;;;;;7.72;5.90;;;22.60;99.90;;;;;;4975776;28;20034;-53
2024/01/25 05:06:12;;;;;;;9.43;5.95;;;22.60;99.90;;;;;;4975801;28;20042;-53
2024/01/25 05:08:38;;;;;;;7.07;5.45;;;22.60;99.90;;;;;;4975785;28;20029;-52
2024/01/25 05:11:04;;;;;;;9.45;5.60;;;22.60;99.90;;;;;;4973976;28;20117;-54
2024/01/25 05:13:30;;;;;;;8.27;5.60;;;22.60;99.90;;;;;;4973024;28;20448;-53
2024/01/25 05:15:56;;;;;;;7.45;5.30;;;22.60;99.90;;;;;;4973820;28;20041;-53
2024/01/25 05:18:22;;;;;;;9.38;5.95;;;22.60;99.90;;;;;;4975176;28;20019;-54
2024/01/25 05:20:47;;;;;;;7.47;5.40;;;22.50;99.90;;;;;;4975104;28;20365;-54
2024/01/25 05:23:13;;;;;;;10.18;5.90;;;22.50;99.90;;;;;;4975365;28;20165;-53
2024/01/25 05:25:39;;;;;;;7.78;4.78;;;22.60;99.90;;;;;;4957773;28;20456;-53
2024/01/25 05:28:05;;;;;;;10.43;5.95;;;22.50;99.90;;;;;;4975148;28;20019;-53
2024/01/25 05:30:31;;;;;;;7.75;5.50;;;22.50;99.90;;;;;;4972762;28;20035;-53
2024/01/25 05:32:57;;;;;;;8.80;5.50;;;22.50;99.90;;;;;;4966108;28;20019;-55
2024/01/25 05:35:26;;;;;;;9.52;6.53;;;22.50;99.90;;;;;;4973961;28;20030;-53
2024/01/25 05:37:51;;;;;;;9.80;5.60;;;22.50;99.90;;;;;;4975001;28;20030;-53
2024/01/25 05:40:18;;;;;;;8.05;5.53;;;22.50;99.90;;;;;;4975015;28;20407;-53
2024/01/25 05:42:43;;;;;;;8.45;5.43;;;22.50;99.90;;;;;;4975587;28;20029;-53
2024/01/25 05:45:10;;;;;;;8.30;5.55;;;22.40;99.90;;;;;;4974922;28;20467;-53
2024/01/25 05:47:35;;;;;;;8.82;5.57;;;22.50;99.90;;;;;;4974793;28;20431;-53
2024/01/25 05:50:02;;;;;;;9.40;5.65;;;22.40;99.90;;;;;;4974802;28;20027;-54
2024/01/25 05:52:29;;;;;;;7.70;5.57;;;22.40;99.90;;;;;;4974764;28;20027;-54
2024/01/25 05:54:54;;;;;;;9.73;5.60;;;22.40;99.90;;;;;;4974867;28;20049;-53
2024/01/25 05:57:20;;;;;;;8.07;5.40;;;22.40;99.90;;;;;;4974634;28;20046;-54
2024/01/25 05:59:47;;;;;;;7.78;5.57;;;22.40;99.90;;;;;;4956264;28;20041;-54
2024/01/25 06:02:13;;;;;;;8.48;5.13;;;22.40;99.90;;;;;;4974660;28;20051;-53
2024/01/25 06:04:39;;;;;;;6.82;4.95;;;22.40;99.90;;;;;;4972963;28;20092;-53
2024/01/25 06:07:05;;;;;;;6.50;4.93;;;22.40;99.90;;;;;;4966195;28;20027;-53
2024/01/25 06:09:31;;;;;;;8.25;5.03;;;22.30;99.90;;;;;;4969587;28;20034;-53
2024/01/25 06:11:57;;;;;;;7.53;5.75;;;22.30;99.90;;;;;;4974295;28;20046;-53
2024/01/25 06:14:24;;;;;;;7.10;4.57;;;22.30;99.90;;;;;;4973226;28;20038;-54
2024/01/25 06:16:50;;;;;;;7.88;4.88;;;22.30;99.90;;;;;;4973904;28;20050;-53
2024/01/25 06:19:16;;;;;;;8.63;5.13;;;22.40;99.90;;;;;;4973695;28;20027;-53
2024/01/25 06:21:41;;;;;;;7.47;5.32;;;22.30;99.90;;;;;;4974242;28;20098;-54
2024/01/25 06:24:07;;;;;;;8.15;4.88;;;22.40;99.90;;;;;;4973406;28;20075;-54
2024/01/25 06:26:33;;;;;;;8.63;5.20;;;22.30;99.90;;;;;;4973988;28;20027;-53
2024/01/25 06:28:59;;;;;;;7.15;4.95;;;22.30;99.90;;;;;;4974277;28;20077;-53
2024/01/25 06:31:25;;;;;;;7.22;5.07;;;22.30;99.90;;;;;;4956901;28;20045;-53
2024/01/25 06:33:52;;;;;;;7.72;5.25;;;22.30;99.90;;;;;;4974063;28;20106;-54
2024/01/25 06:36:21;;;;;;;6.80;4.90;;;22.30;99.90;;;;;;4974282;28;20077;-54
2024/01/25 06:38:47;;;;;;;7.88;5.28;;;22.30;99.90;;;;;;4956802;28;20120;-54
2024/01/25 06:41:13;;;;;;;8.18;5.35;;;22.20;99.90;;;;;;4973876;28;20067;-54
2024/01/25 06:43:40;;;;;;;6.60;4.82;;;22.20;99.90;;;;;;4973706;28;20030;-53
2024/01/25 06:46:07;;;;;;;7.63;4.50;;;22.20;99.90;;;;;;4973950;28;20023;-53
2024/01/25 06:48:33;;;;;;;6.28;4.55;;;22.20;99.90;;;;;;4973583;28;20030;-53
2024/01/25 06:51:00;;;;;;;6.22;4.60;;;22.20;99.90;;;;;;4973645;28;20031;-54
2024/01/25 06:53:26;;;;;;;6.60;4.90;;;22.20;99.90;;;;;;4956349;28;20022;-54
2024/01/25 06:55:52;;;;;;;6.80;4.72;;;22.20;99.90;;;;;;4973511;28;20101;-54
2024/01/25 06:58:18;;;;;;;7.40;4.47;;;22.20;99.90;;;;;;4973871;28;20121;-54
2024/01/25 07:00:46;;;;;;;7.55;4.82;;;22.20;99.90;;;;;;4973328;28;20065;-54
2024/01/25 07:03:12;;;;;;;7.82;4.65;;;22.20;99.90;;;;;;4973631;28;20030;-54
2024/01/25 07:05:38;;;;;;;6.90;4.40;;;22.20;99.90;;;;;;4973738;28;20455;-54
2024/01/25 07:08:05;;;;;;;8.70;4.90;;;22.20;99.90;;;;;;4973407;28;20031;-54
2024/01/25 07:10:31;;;;;;;7.93;4.65;;;22.20;99.90;;;;;;4955832;28;20476;-54
2024/01/25 07:12:57;;;;;;;7.45;4.95;;;22.20;99.90;;;;;;4973421;28;20015;-54
2024/01/25 07:15:23;;;;;;;5.30;3.80;;;22.20;99.90;;;;;;4973531;28;20023;-54
2024/01/25 07:17:49;;;;;;;5.50;4.13;;;22.20;99.90;;;;;;4973562;28;20023;-54
2024/01/25 07:20:14;;;;;;;6.35;4.07;;;22.10;99.90;;;;;;4973543;28;20023;-54
2024/01/25 07:22:40;;;;;;;8.00;4.95;;;22.10;99.90;;;;;;4973386;28;20057;-54
2024/01/25 07:25:06;;;;;;;6.65;4.35;;;22.10;99.90;;;;;;4973221;28;20027;-53
2024/01/25 07:27:32;;;;;;;5.38;4.22;;;22.10;99.90;;;;;;4973445;28;20038;-54
2024/01/25 07:29:58;;;;;;;6.57;4.47;;;22.10;99.90;;;;;;4973114;28;20031;-54
2024/01/25 07:32:24;;;;;;;6.38;4.45;;;22.10;99.90;;;;;;4973262;28;20085;-54
2024/01/25 07:34:50;;;;;;;5.85;4.72;;;22.10;99.90;;;;;;4973433;28;20495;-54
2024/01/25 07:37:18;;;;;;;5.43;3.97;;;22.10;99.90;;;;;;4972975;28;20093;-54
2024/01/25 07:39:44;;;;;;;5.78;4.25;;;22.10;99.90;;;;;;4972871;28;20033;-53
2024/01/25 07:42:11;;;;;;;6.15;4.63;;;22.10;99.90;;;;;;4972824;28;20019;-53
2024/01/25 07:44:37;;;;;;;6.53;4.85;;;22.10;99.90;;;;;;4972943;28;20459;-53
2024/01/25 07:47:03;;;;;;;6.38;4.35;;;22.10;99.90;;;;;;4972945;28;20101;-54
2024/01/25 07:49:29;;;;;;;6.78;4.57;;;22.10;99.90;;;;;;4972890;28;20372;-54
2024/01/25 07:51:56;;;;;;;6.60;4.60;;;22.10;99.90;;;;;;4972825;28;20043;-54
2024/01/25 07:54:22;;;;;;;6.93;4.90;;;22.10;99.90;;;;;;4955574;28;20089;-54
2024/01/25 07:56:48;;;;;;;7.00;4.80;;;22.10;99.90;;;;;;4955708;28;20031;-55
2024/01/25 07:59:14;;;;;;;4.90;3.70;;;22.10;99.90;;;;;;4972603;28;20501;-54
2024/01/25 08:01:40;;;;;;;8.10;4.47;;;22.10;99.90;;;;;;4955558;28;20488;-54
2024/01/25 08:04:06;;;;;;;6.72;4.50;;;22.20;99.90;;;;;;4972834;28;20098;-54
2024/01/25 08:06:31;;;;;;;4.30;3.90;;;22.20;99.90;;;;;;4972636;28;20030;-54
2024/01/25 08:08:57;;;;;;;6.35;4.20;;;22.20;99.90;;;;;;4972896;28;20038;-54
2024/01/25 08:11:23;;;;;;;8.70;4.38;;;22.20;99.90;;;;;;4972927;28;20038;-54
2024/01/25 08:13:49;;;;;;;5.47;4.03;;;22.20;99.90;;;;;;4972756;28;20031;-53
2024/01/25 08:16:24;;;;;;;7.15;4.35;;;22.20;99.90;;;;;;4972735;28;20029;-53
2024/01/25 08:18:50;;;;;;;6.03;3.90;;;22.20;99.90;;;;;;4972813;28;20035;-54
2024/01/25 08:21:16;;;;;;;7.20;4.25;;;22.20;99.90;;;;;;4972632;28;20030;-53
2024/01/25 08:23:42;;;;;;;5.03;3.95;;;22.20;99.90;;;;;;4958269;28;20109;-54
2024/01/25 08:26:12;;;;;;;5.65;3.90;;;22.20;99.90;;;;;;4976378;28;20075;-54
2024/01/25 08:28:43;;;;;;;5.25;3.88;;;22.30;99.90;;;;;;4976210;28;20497;-53
2024/01/25 08:31:09;;;;;;;6.47;3.83;;;22.30;99.90;;;;;;4976361;28;20043;-54
2024/01/25 08:33:34;;;;;;;6.07;3.83;;;22.30;99.90;;;;;;4976245;28;20491;-54
2024/01/25 08:36:01;;;;;;;6.68;4.05;;;22.30;99.90;;;;;;4976296;28;20019;-54
2024/01/25 08:38:27;;;;;;;6.63;3.92;;;22.30;99.90;;;;;;4976144;28;20027;-55
2024/01/25 08:40:52;;;;;;;6.15;3.90;;;22.30;99.90;;;;;;4976443;28;20494;-54
2024/01/25 08:43:18;;;;;;;6.00;4.28;;;22.40;99.90;;;;;;4976011;28;20479;-54
2024/01/25 08:45:44;;;;;;;6.63;3.88;;;22.40;99.90;;;;;;4975879;28;20069;-54
2024/01/25 08:48:10;;;;;;;5.03;3.47;;;22.40;99.90;;;;;;4975814;28;20026;-54
2024/01/25 08:50:36;;;;;;;5.15;3.80;;;22.40;99.90;;;;;;4958199;28;20034;-55
2024/01/25 08:53:02;;;;;;;9.00;4.63;;;22.40;99.90;;;;;;4975841;28;20085;-54
2024/01/25 08:55:28;;;;;;;5.60;3.45;;;22.40;99.90;;;;;;4975754;28;20031;-55
2024/01/25 08:57:54;;;;;;;5.90;3.40;;;22.40;99.90;;;;;;4976172;28;20486;-55
2024/01/25 09:00:20;;;;;;;7.75;4.20;;;22.50;99.90;;;;;;4975808;28;20034;-54
2024/01/25 09:02:45;;;;;;;5.85;3.70;;;22.50;99.90;;;;;;4957915;28;20051;-55
2024/01/25 09:05:11;;;;;;;6.45;3.80;;;22.50;99.90;;;;;;4975824;28;20023;-55
2024/01/25 09:07:38;;;;;;;6.28;3.47;;;22.50;99.90;;;;;;4975720;28;20034;-55
2024/01/25 09:10:04;;;;;;;5.53;3.70;;;22.50;99.90;;;;;;4975525;28;20050;-55
2024/01/25 09:12:30;;;;;;;6.15;4.28;;;22.50;99.90;;;;;;4975633;28;20037;-55
2024/01/25 09:14:56;;;;;;;7.93;4.22;;;22.60;99.90;;;;;;4975723;28;20022;-54
2024/01/25 09:17:22;;;;;;;6.35;3.80;;;22.60;99.90;;;;;;4975640;28;20383;-54
2024/01/25 09:19:49;;;;;;;8.45;4.75;;;22.60;99.90;;;;;;4975282;28;20030;-54
2024/01/25 09:22:17;;;;;;;7.90;4.07;;;22.60;99.90;;;;;;4975605;28;20353;-55
2024/01/25 09:24:43;;;;;;;5.97;3.50;;;22.60;99.90;;;;;;4975246;28;20023;-55
2024/01/25 09:27:09;;;;;;;7.72;3.90;;;22.60;99.90;;;;;;4975444;28;20136;-54
2024/01/25 09:29:35;;;;;;;6.93;4.20;;;22.70;99.90;;;;;;4975427;28;20077;-54
2024/01/25 09:32:01;;;;;;;7.90;4.03;;;22.70;99.90;;;;;;4975077;28;20031;-53
2024/01/25 09:34:27;;;;;;;10.10;4.55;;;22.70;99.90;;;;;;4975182;28;20027;-55
2024/01/25 09:36:53;;;;;;;6.35;3.72;;;22.70;99.90;;;;;;4975202;28;20027;-54
2024/01/25 09:39:19;;;;;;;6.47;4.20;;;22.70;99.90;;;;;;4975400;28;20031;-54
2024/01/25 09:41:46;;;;;;;9.32;4.18;;;22.70;99.90;;;;;;4957539;28;20114;-54
2024/01/25 09:44:12;;;;;;;4.82;3.70;;;22.80;99.90;;;;;;4975234;28;20105;-54
2024/01/25 09:46:40;;;;;;;10.27;4.38;;;22.80;99.90;;;;;;4974951;28;20035;-55
2024/01/25 09:49:07;;;;;;;8.95;4.45;;;22.80;99.90;;;;;;4974732;28;20030;-54
2024/01/25 09:51:39;;;;;;;7.15;4.53;;;22.80;99.90;;;;;;4974984;28;20525;-54
2024/01/25 09:54:05;;;;;;;6.68;4.30;;;22.90;99.90;;;;;;4974766;28;20022;-54
2024/01/25 09:56:35;;;;;;;7.38;4.20;;;22.90;99.90;;;;;;4957699;28;20026;-54
2024/01/25 09:59:02;;;;;;;6.25;4.15;;;22.90;99.90;;;;;;4974842;28;20058;-55
2024/01/25 10:01:28;;;;;;;7.15;3.88;;;22.90;99.90;;;;;;4974536;28;20368;-54
2024/01/25 10:03:57;;;;;;;7.20;4.35;;;23.00;99.90;;;;;;4975112;28;20038;-55
2024/01/25 10:06:23;;;;;;;7.70;4.50;;;23.00;99.90;;;;;;4975011;28;20162;-55
2024/01/25 10:08:49;;;;;;;6.97;3.83;;;23.00;99.90;;;;;;4974789;28;20054;-54
2024/01/25 10:11:16;;;;;;;7.15;4.60;;;23.10;99.90;;;;;;4974461;28;20578;-54
2024/01/25 10:13:47;;;;;;;5.55;3.90;;;23.10;99.90;;;;;;4974703;28;20469;-54
2024/01/25 10:16:14;;;;;;;6.82;4.38;;;23.20;99.90;;;;;;4974441;28;20031;-54
2024/01/25 10:18:42;;;;;;;6.55;4.38;;;23.20;99.90;;;;;;4974457;28;20051;-54
2024/01/25 10:21:10;;;;;;;6.38;4.43;;;23.20;99.90;;;;;;4957210;28;20062;-54
2024/01/25 10:23:37;;;;;;;8.30;4.10;;;23.30;99.90;;;;;;4974277;28;20061;-53
2024/01/25 10:26:03;;;;;;;10.23;4.28;;;23.40;99.90;;;;;;4974388;28;20027;-54
2024/01/25 10:28:31;;;;;;;5.22;3.85;;;23.40;99.90;;;;;;4974099;28;20022;-54
2024/01/25 10:30:57;;;;;;;5.63;4.30;;;23.40;99.90;;;;;;4974678;28;20037;-54
2024/01/25 10:33:26;;;;;;;6.20;4.17;;;23.50;99.90;;;;;;4974476;28;20033;-54
2024/01/25 10:35:55;;;;;;;7.32;4.18;;;23.50;99.90;;;;;;4974322;28;20341;-54
2024/01/25 10:38:22;;;;;;;6.25;4.60;;;23.50;99.90;;;;;;4973985;28;20063;-54
2024/01/25 10:40:48;;;;;;;7.73;4.20;;;23.60;99.90;;;;;;4974246;28;20031;-54
2024/01/25 10:43:14;;;;;;;8.63;4.03;;;23.60;99.90;;;;;;4974068;28;20340;-54
2024/01/25 10:45:40;;;;;;;5.95;3.97;;;23.70;99.90;;;;;;4973123;28;20142;-54
2024/01/25 10:48:07;;;;;;;6.80;4.63;;;23.70;99.90;;;;;;4956676;28;20521;-54
2024/01/25 10:50:33;;;;;;;;;;;23.70;99.90;;;;;;4974112;28;20089;-54
2024/01/25 10:53:00;;;;;;;8.05;4.88;;;23.80;99.90;;;;;;4973880;28;20367;-54
2024/01/25 10:55:27;;;;;;;6.78;4.47;;;23.80;99.90;;;;;;4956522;28;20023;-54
2024/01/25 10:57:53;;;;;;;5.77;4.07;;;23.80;99.90;;;;;;4956728;28;20430;-54
2024/01/25 11:00:19;;;;;;;7.18;4.57;;;23.90;99.90;;;;;;4973716;28;20105;-54
2024/01/25 11:02:49;;;;;;;6.30;4.25;;;23.90;99.90;;;;;;4973200;28;20058;-54
2024/01/25 11:05:17;;;;;;;8.48;4.40;;;23.90;99.90;;;;;;4973554;28;20106;-54
2024/01/25 11:07:43;;;;;;;5.82;4.10;;;24.00;99.90;;;;;;4973503;28;20058;-55
2024/01/25 11:10:20;;;;;;;6.50;4.00;;;24.00;99.90;;;;;;4973462;28;20391;-55
2024/01/25 11:13:16;;;;;;;6.78;4.40;;;24.00;99.90;;;;;;4973600;28;20595;-55
2024/01/25 11:15:41;;;;;;;9.10;4.63;;;24.00;99.90;;;;;;4943536;28;20126;-55
2024/01/25 11:18:08;;;;;;;7.13;4.30;;;24.10;99.90;;;;;;4956191;28;20484;-55
2024/01/25 11:20:36;;;;;;;8.48;3.83;;;24.10;99.90;;;;;;4973403;28;20121;-55
2024/01/25 11:23:02;;;;;;;;;;;24.20;99.90;;;;;;4956302;28;20033;-55
2024/01/25 11:25:36;;;;;;;5.38;3.95;;;24.20;99.90;;;;;;4973400;28;19906;-54
2024/01/25 11:28:05;;;;;;;8.05;4.00;;;24.20;99.90;;;;;;4973203;28;20049;-55
2024/01/25 11:30:35;;;;;;;12.32;4.88;;;24.30;99.90;;;;;;4955634;28;20035;-54
2024/01/25 11:33:04;;;;;;;8.50;4.43;;;24.30;99.90;;;;;;4973204;28;20019;-54
2024/01/25 11:35:29;;;;;;;6.90;4.22;;;24.30;99.90;;;;;;4972993;28;20042;-54
2024/01/25 11:37:56;;;;;;;7.60;3.88;;;24.40;99.90;;;;;;4973213;28;20514;-54
2024/01/25 11:40:22;;;;;;;7.43;4.07;;;24.40;99.90;;;;;;4972969;28;20015;-55
2024/01/25 11:42:49;;;;;;;9.25;3.92;;;24.40;99.90;;;;;;4973123;28;20060;-54
2024/01/25 11:45:16;;;;;;;7.65;4.45;;;24.40;99.90;;;;;;4973081;28;20026;-54
2024/01/25 11:47:43;;;;;;;8.15;4.28;;;24.50;99.90;;;;;;4972953;28;20054;-54
2024/01/25 11:50:11;;;;;;;10.02;3.78;;;24.50;99.90;;;;;;4972960;28;20324;-54
2024/01/25 11:52:38;;;;;;;8.50;3.92;;;24.50;99.90;;;;;;4972892;28;20038;-54
2024/01/25 11:55:06;;;;;;;9.23;3.97;;;24.50;99.90;;;;;;4973154;28;20030;-55
2024/01/25 11:57:42;;;;;;;7.40;3.97;;;24.60;99.90;;;;;;4972707;28;20019;-55
2024/01/25 12:00:10;;;;;;;7.85;3.92;;;24.60;99.90;;;;;;4957093;28;20523;-55
2024/01/25 12:02:40;;;;;;;9.70;4.07;;;24.70;99.90;;;;;;4972480;28;20050;-55
2024/01/25 12:05:06;;;;;;;6.40;4.22;;;24.70;99.90;;;;;;4972904;28;20407;-55
2024/01/25 12:07:33;;;;;;;6.70;4.03;;;24.70;99.90;;;;;;4972960;28;20036;-54
2024/01/25 12:10:14;;;;;;;7.43;4.93;;;24.70;99.90;;;;;;4972767;28;20078;-55
2024/01/25 12:12:40;;;;;;;6.35;3.55;;;24.70;99.90;;;;;;4972954;28;20106;-55
2024/01/25 12:15:07;;;;;;;7.85;4.05;;;24.70;99.90;;;;;;4972774;28;20177;-55
2024/01/25 12:17:36;;;;;;;5.53;3.80;;;24.80;99.90;;;;;;4972903;28;20086;-55
2024/01/25 12:20:03;;;;;;;7.00;3.55;;;24.80;99.90;;;;;;4972664;28;20103;-55
2024/01/25 12:22:29;;;;;;;7.18;3.67;;;24.80;99.90;;;;;;4955438;28;20101;-55
2024/01/25 12:24:58;;;;;;;6.33;4.43;;;24.80;99.90;;;;;;4972862;28;20030;-55
2024/01/25 12:27:26;;;;;;;6.78;3.92;;;24.90;99.90;;;;;;4972923;28;20276;-55
2024/01/25 12:29:55;;;;;;;8.05;3.55;;;24.90;99.90;;;;;;4972533;28;20023;-55
2024/01/25 12:32:22;;;;;;;7.80;4.07;;;24.90;99.90;;;;;;4972695;28;20093;-55
2024/01/25 12:34:58;;;;;;;6.82;3.80;;;25.00;99.90;;;;;;4972524;28;20027;-55
2024/01/25 12:37:24;;;;;;;7.57;4.28;;;25.00;99.90;;;;;;4960069;28;20035;-55
2024/01/25 12:39:54;;;;;;;17.40;4.18;;;25.00;99.90;;;;;;4955084;28;20027;-55
2024/01/25 12:42:20;;;;;;;5.38;3.58;;;25.00;99.90;;;;;;4972336;28;20019;-55